CheckWX is a tool to help pilots better visualize weather data.  It is not intended as a substitute for an official pre-flight weather briefing.

07:39:10 UTC

KLAR TAF
Laramie Regional Airport
Laramie, Wyoming, USA
KLAR 150530Z 1506/1606 22008KT P6SM SCT200 FM151200 23009KT P6SM BKN120 FM151700 26014G22KT P6SM BKN120 FM160100 25010KT P6SM SCT150

Nov-15@
06:00 UTC

Nov-15 @ 06:00 UTC

Nov-15@
12:00 UTC

Nov-15 @ 12:00 UTC

KLAR 150530Z 1506/1606 22008KT P6SM SCT200
Wind
  • 220° at 8 KTS
Cloud Levels
  • Scattered at 20,000' AGL

Nov-15@
12:00 UTC

Nov-15 @ 12:00 UTC

Nov-15@
17:00 UTC

Nov-15 @ 17:00 UTC

FM151200 23009KT P6SM BKN120

From

From Standard forecast or significant change

Wind
  • 230° at 9 KTS
Cloud Levels
  • Broken at 12,000' AGL

Nov-15@
17:00 UTC

Nov-15 @ 17:00 UTC

Nov-16@
01:00 UTC

Nov-16 @ 01:00 UTC

FM151700 26014G22KT P6SM BKN120

From

From Standard forecast or significant change

Wind
  • 260° at 14 KTS
  • {Gusting to 22 KTS
Cloud Levels
  • Broken at 12,000' AGL

Nov-16@
01:00 UTC

Nov-16 @ 01:00 UTC

Nov-16@
06:00 UTC

Nov-16 @ 06:00 UTC

FM160100 25010KT P6SM SCT150

From

From Standard forecast or significant change

Wind
  • 250° at 10 KTS
Cloud Levels
  • Scattered at 15,000' AGL